createdAt,value
2022-08-09T00:00:04.819Z,14.32
2022-08-09T00:01:16.458Z,14.32
2022-08-09T00:02:19.787Z,14.30
2022-08-09T00:04:06.166Z,14.30
2022-08-09T00:05:03.190Z,14.28
2022-08-09T00:06:19.252Z,14.25
2022-08-09T00:07:25.010Z,14.24
2022-08-09T00:08:33.174Z,14.23
2022-08-09T00:09:35.392Z,14.21
2022-08-09T00:10:40.955Z,14.17
2022-08-09T00:11:58.617Z,14.17
2022-08-09T00:13:17.059Z,14.15
2022-08-09T00:14:21.986Z,14.13
2022-08-09T00:15:59.445Z,14.09
2022-08-09T00:16:57.693Z,14.09
2022-08-09T00:18:07.625Z,14.07
2022-08-09T00:19:14.037Z,14.04
2022-08-09T00:20:21.714Z,14.02
2022-08-09T00:21:24.473Z,14.01
2022-08-09T00:22:35.151Z,13.99
2022-08-09T00:23:58.299Z,13.98
2022-08-09T00:25:02.473Z,13.95
2022-08-09T00:26:14.581Z,13.93
2022-08-09T00:27:17.687Z,13.92
2022-08-09T00:28:20.342Z,13.91
2022-08-09T00:30:16.071Z,13.89
2022-08-09T00:30:49.848Z,13.86
2022-08-09T00:31:59.594Z,13.85
2022-08-09T00:33:03.844Z,13.84
2022-08-09T00:34:07.766Z,13.84
2022-08-09T00:35:09.938Z,13.83
2022-08-09T00:36:13.516Z,13.80
2022-08-09T00:37:17.103Z,13.81
2022-08-09T00:38:21.527Z,13.79
2022-08-09T00:40:13.837Z,13.79
2022-08-09T00:40:52.530Z,13.78
2022-08-09T00:44:10.075Z,13.76
2022-08-09T00:44:10.492Z,13.77
2022-08-09T00:44:42.093Z,13.76
2022-08-09T00:45:50.767Z,13.73
2022-08-09T00:47:05.504Z,13.73
2022-08-09T00:48:08.422Z,13.73
2022-08-09T00:49:18.425Z,13.71
2022-08-09T00:50:24.113Z,13.69
2022-08-09T00:51:28.269Z,13.69
2022-08-09T00:52:38.360Z,13.67
2022-08-09T00:53:40.532Z,13.66
2022-08-09T00:54:45.043Z,13.65
2022-08-09T00:56:05.098Z,13.64
2022-08-09T00:57:13.584Z,13.63
2022-08-09T00:58:25.497Z,13.61
2022-08-09T00:59:41.422Z,13.59
2022-08-09T01:00:53.635Z,13.59
2022-08-09T01:02:00.830Z,13.58
2022-08-09T01:03:15.668Z,13.57
2022-08-09T01:04:31.420Z,13.53
2022-08-09T01:05:50.753Z,13.56
2022-08-09T01:07:05.385Z,13.55
2022-08-09T01:08:13.763Z,13.54
2022-08-09T01:09:36.754Z,13.52
2022-08-09T01:10:45.259Z,13.52
2022-08-09T01:11:59.627Z,13.50
2022-08-09T01:13:08.083Z,13.49
2022-08-09T01:14:21.983Z,13.49
2022-08-09T01:15:30.730Z,13.47
2022-08-09T01:16:40.216Z,13.47
2022-08-09T01:18:00.068Z,13.45
2022-08-09T01:19:16.752Z,13.45
2022-08-09T01:20:43.992Z,13.44
2022-08-09T01:21:58.536Z,13.42
2022-08-09T01:24:00.944Z,13.42
2022-08-09T01:24:40.653Z,13.37
2022-08-09T01:26:02.910Z,13.37
2022-08-09T01:27:09.573Z,13.36
2022-08-09T01:28:13.920Z,13.33
2022-08-09T01:29:22.973Z,13.33
2022-08-09T01:30:35.485Z,13.33
2022-08-09T01:32:30.001Z,13.30
2022-08-09T01:33:03.493Z,13.28
2022-08-09T01:34:07.110Z,13.28
2022-08-09T01:35:37.984Z,13.26
2022-08-09T01:36:41.317Z,13.26
2022-08-09T01:38:09.767Z,13.25
2022-08-09T01:39:09.243Z,13.25
2022-08-09T01:40:23.089Z,13.24
2022-08-09T01:41:32.991Z,13.23
2022-08-09T01:42:39.572Z,13.21
2022-08-09T01:43:51.526Z,13.23
2022-08-09T01:44:56.953Z,13.20
2022-08-09T01:46:02.731Z,13.20
2022-08-09T01:47:07.177Z,13.18
2022-08-09T01:48:15.747Z,13.16
2022-08-09T01:49:24.068Z,13.15
2022-08-09T01:50:36.624Z,13.13
2022-08-09T01:51:44.577Z,13.10
2022-08-09T01:52:57.498Z,13.10
2022-08-09T01:54:02.398Z,13.07
2022-08-09T01:55:08.639Z,13.05
2022-08-09T01:56:13.354Z,13.05
2022-08-09T01:57:18.272Z,13.03
2022-08-09T01:58:27.270Z,13.03
2022-08-09T01:59:32.422Z,13.03
2022-08-09T02:00:36.463Z,13.03
2022-08-09T02:01:59.898Z,13.03
2022-08-09T02:03:07.200Z,13.02
2022-08-09T02:04:15.385Z,13.01
2022-08-09T02:05:38.207Z,13.02
2022-08-09T02:07:04.130Z,13.01
2022-08-09T02:08:39.842Z,13.01
2022-08-09T02:09:42.222Z,13.00
2022-08-09T02:10:51.138Z,12.98
2022-08-09T02:11:56.172Z,12.97
2022-08-09T02:13:02.963Z,12.95
2022-08-09T02:14:09.520Z,12.95
2022-08-09T02:15:16.669Z,12.96
2022-08-09T02:16:33.741Z,12.95
2022-08-09T02:18:09.923Z,12.93
2022-08-09T02:19:10.281Z,12.93
2022-08-09T02:20:15.918Z,12.93
2022-08-09T02:21:32.606Z,12.91
2022-08-09T02:22:40.797Z,12.90
2022-08-09T02:23:54.547Z,12.89
2022-08-09T02:25:01.622Z,12.88
2022-08-09T02:26:06.803Z,12.87
2022-08-09T02:27:57.305Z,12.85
2022-08-09T02:28:55.646Z,12.86
2022-08-09T02:30:01.664Z,12.84
2022-08-09T02:31:08.855Z,12.84
2022-08-09T02:32:12.641Z,12.84
2022-08-09T02:33:58.350Z,12.84
2022-08-09T02:34:51.926Z,12.83
2022-08-09T02:36:04.439Z,12.84
2022-08-09T02:37:12.327Z,12.84
2022-08-09T02:38:22.050Z,12.83
2022-08-09T02:39:41.768Z,12.83
2022-08-09T02:40:47.001Z,12.83
2022-08-09T02:41:57.655Z,12.81
2022-08-09T02:43:02.966Z,12.79
2022-08-09T02:44:29.153Z,12.80
2022-08-09T02:45:37.727Z,12.79
2022-08-09T02:46:42.152Z,12.78
2022-08-09T02:47:59.281Z,12.79
2022-08-09T02:49:08.916Z,12.77
2022-08-09T02:50:16.239Z,12.76
2022-08-09T02:51:24.200Z,12.77
2022-08-09T02:52:35.264Z,12.77
2022-08-09T02:54:00.649Z,12.76
2022-08-09T02:55:20.324Z,12.78
2022-08-09T02:56:25.750Z,12.77
2022-08-09T02:57:40.561Z,12.76
2022-08-09T02:58:57.986Z,12.75
2022-08-09T03:00:25.706Z,12.75
2022-08-09T03:01:29.365Z,12.74
2022-08-09T03:02:58.228Z,12.74
2022-08-09T03:04:18.585Z,12.72
2022-08-09T03:05:24.148Z,12.72
2022-08-09T03:06:27.973Z,12.71
2022-08-09T03:07:34.182Z,12.69
2022-08-09T03:08:39.329Z,12.70
2022-08-09T03:09:54.259Z,12.69
2022-08-09T03:11:02.611Z,12.67
2022-08-09T03:12:11.346Z,12.68
2022-08-09T03:13:18.555Z,12.68
2022-08-09T03:14:21.847Z,12.67
2022-08-09T03:16:04.682Z,12.66
2022-08-09T03:16:56.247Z,12.66
2022-08-09T03:18:02.920Z,12.66
2022-08-09T03:19:14.294Z,12.68
2022-08-09T03:20:38.309Z,12.66
2022-08-09T03:21:42.139Z,12.67
2022-08-09T03:22:58.249Z,12.66
2022-08-09T03:24:03.899Z,12.66
2022-08-09T03:25:25.779Z,12.66
2022-08-09T03:26:35.340Z,12.66
2022-08-09T03:27:50.750Z,12.66
2022-08-09T03:28:59.082Z,12.66
2022-08-09T03:30:02.279Z,12.66
2022-08-09T03:31:10.440Z,12.65
2022-08-09T03:32:27.829Z,12.65
2022-08-09T03:33:53.429Z,12.65
2022-08-09T03:34:56.327Z,12.64
2022-08-09T03:36:16.488Z,12.64
2022-08-09T03:37:55.628Z,12.62
2022-08-09T03:38:44.806Z,12.61
2022-08-09T03:39:55.649Z,12.60
2022-08-09T03:40:59.949Z,12.58
2022-08-09T03:42:06.222Z,12.59
2022-08-09T03:43:10.026Z,12.57
2022-08-09T03:44:15.597Z,12.57
2022-08-09T03:46:03.981Z,12.57
2022-08-09T03:46:40.985Z,12.56
2022-08-09T03:47:46.659Z,12.55
2022-08-09T03:48:53.868Z,12.56
2022-08-09T03:49:58.873Z,12.56
2022-08-09T03:51:02.725Z,12.56
2022-08-09T03:52:08.461Z,12.54
2022-08-09T03:53:11.669Z,12.53
2022-08-09T03:54:15.741Z,12.54
2022-08-09T03:55:18.445Z,12.53
2022-08-09T03:56:21.873Z,12.53
2022-08-09T03:57:25.076Z,12.52
2022-08-09T03:58:27.424Z,12.52
2022-08-09T03:59:53.251Z,12.52
2022-08-09T04:00:56.072Z,12.51
2022-08-09T04:01:59.277Z,12.50
2022-08-09T04:03:04.864Z,12.49
2022-08-09T04:04:10.184Z,12.49
2022-08-09T04:05:27.421Z,12.48
2022-08-09T04:06:30.361Z,12.47
2022-08-09T04:07:47.762Z,12.47
2022-08-09T04:08:55.456Z,12.45
2022-08-09T04:09:58.683Z,12.45
2022-08-09T04:11:01.854Z,12.44
2022-08-09T04:12:30.811Z,12.44
2022-08-09T04:14:36.914Z,12.43
2022-08-09T04:15:01.889Z,12.43
2022-08-09T04:16:20.942Z,12.42
2022-08-09T04:17:23.602Z,12.42
2022-08-09T04:18:28.216Z,12.42
2022-08-09T04:19:51.137Z,12.43
2022-08-09T04:20:53.398Z,12.41
2022-08-09T04:21:55.524Z,12.42
2022-08-09T04:23:10.080Z,12.41
2022-08-09T04:24:19.319Z,12.41
2022-08-09T04:25:23.099Z,12.41
2022-08-09T04:26:35.347Z,12.40
2022-08-09T04:27:42.252Z,12.41
2022-08-09T04:28:48.859Z,12.41
2022-08-09T04:29:51.889Z,12.42
2022-08-09T04:30:53.920Z,12.43
2022-08-09T04:31:58.663Z,12.42
2022-08-09T04:33:01.817Z,12.42
2022-08-09T04:34:06.353Z,12.43
2022-08-09T04:35:11.582Z,12.44
2022-08-09T04:36:14.595Z,12.46
2022-08-09T04:37:22.485Z,12.46
2022-08-09T04:38:24.504Z,12.47
2022-08-09T04:39:31.191Z,12.48
2022-08-09T04:40:56.220Z,12.48
2022-08-09T04:42:02.758Z,12.50
2022-08-09T04:43:05.881Z,12.52
2022-08-09T04:44:12.083Z,12.53
2022-08-09T04:45:20.691Z,12.55
2022-08-09T04:46:37.254Z,12.57
2022-08-09T04:48:00.271Z,12.59
2022-08-09T04:49:06.543Z,12.58
2022-08-09T04:50:11.579Z,12.62
2022-08-09T04:51:16.440Z,12.64
2022-08-09T04:52:26.181Z,12.66
2022-08-09T04:53:28.896Z,12.69
2022-08-09T04:54:34.608Z,12.71
2022-08-09T04:55:40.585Z,12.73
2022-08-09T04:57:00.812Z,12.76
2022-08-09T04:58:09.638Z,12.78
2022-08-09T04:59:15.664Z,12.80
2022-08-09T05:00:18.669Z,12.83
2022-08-09T05:01:21.908Z,12.85
2022-08-09T05:02:29.896Z,12.87
2022-08-09T05:03:42.741Z,12.89
2022-08-09T05:04:47.481Z,12.91
2022-08-09T05:05:52.513Z,12.94
2022-08-09T05:07:06.301Z,12.96
2022-08-09T05:08:15.893Z,12.97
2022-08-09T05:09:19.320Z,13.00
2022-08-09T05:10:24.179Z,13.02
2022-08-09T05:11:32.170Z,13.05
2022-08-09T05:12:39.013Z,13.08
2022-08-09T05:13:41.777Z,13.10
2022-08-09T05:14:44.949Z,13.13
2022-08-09T05:15:52.359Z,13.16
2022-08-09T05:17:00.077Z,13.17
2022-08-09T05:18:50.899Z,13.21
2022-08-09T05:19:44.657Z,13.24
2022-08-09T05:20:50.694Z,13.28
2022-08-09T05:21:55.501Z,13.31
2022-08-09T05:23:53.965Z,13.34
2022-08-09T05:24:24.414Z,13.37
2022-08-09T05:25:28.329Z,13.40
2022-08-09T05:26:45.509Z,13.43
2022-08-09T05:27:48.402Z,13.46
2022-08-09T05:28:52.187Z,13.48
2022-08-09T05:29:54.472Z,13.52
2022-08-09T05:30:57.588Z,13.55
2022-08-09T05:32:00.586Z,13.58
2022-08-09T05:33:03.745Z,13.59
2022-08-09T05:34:16.485Z,13.64
2022-08-09T05:35:21.792Z,13.68
2022-08-09T05:36:28.864Z,13.71
2022-08-09T05:37:32.228Z,13.74
2022-08-09T05:38:50.538Z,13.79
2022-08-09T05:39:52.737Z,13.82
2022-08-09T05:40:56.419Z,13.86
2022-08-09T05:42:01.497Z,13.89
2022-08-09T05:43:08.272Z,13.93
2022-08-09T05:44:11.101Z,13.97
2022-08-09T05:45:15.004Z,14.00
2022-08-09T05:46:18.241Z,14.05
2022-08-09T05:47:22.877Z,14.08
2022-08-09T05:48:31.831Z,14.11
2022-08-09T05:50:23.463Z,14.15
2022-08-09T05:51:16.814Z,14.20
2022-08-09T05:52:24.822Z,14.24
2022-08-09T05:53:33.196Z,14.26
2022-08-09T05:54:36.643Z,14.31
2022-08-09T05:55:41.491Z,14.34
2022-08-09T05:56:55.293Z,14.36
2022-08-09T05:57:58.923Z,14.39
2022-08-09T05:59:02.172Z,14.42
2022-08-09T06:00:07.595Z,14.45
2022-08-09T06:01:16.750Z,14.50
2022-08-09T06:02:22.058Z,14.52
2022-08-09T06:03:25.166Z,14.56
2022-08-09T06:04:44.517Z,14.61
2022-08-09T06:06:10.971Z,14.65
2022-08-09T06:07:21.129Z,14.71
2022-08-09T06:08:25.470Z,14.75
2022-08-09T06:09:54.052Z,14.79
2022-08-09T06:10:51.614Z,14.84
2022-08-09T06:11:56.813Z,14.88
2022-08-09T06:13:11.811Z,14.93
2022-08-09T06:14:17.508Z,14.96
2022-08-09T06:15:20.104Z,15.04
2022-08-09T06:16:23.454Z,15.08
2022-08-09T06:17:25.564Z,15.12
2022-08-09T06:18:28.615Z,15.17
2022-08-09T06:19:30.713Z,15.22
2022-08-09T06:20:35.615Z,15.26
2022-08-09T06:21:50.339Z,15.30
2022-08-09T06:22:54.677Z,15.36
2022-08-09T06:24:02.618Z,15.39
2022-08-09T06:25:08.681Z,15.42
2022-08-09T06:26:14.524Z,15.45
2022-08-09T06:27:17.529Z,15.48
2022-08-09T06:28:20.129Z,15.51
2022-08-09T06:29:24.055Z,15.56
2022-08-09T06:30:29.049Z,15.59
2022-08-09T06:31:39.814Z,15.62
2022-08-09T06:33:13.730Z,15.67
2022-08-09T06:34:19.108Z,15.73
2022-08-09T06:35:21.316Z,15.76
2022-08-09T06:36:44.488Z,15.80
2022-08-09T06:37:53.129Z,15.85
2022-08-09T06:39:11.622Z,15.89
2022-08-09T06:40:21.599Z,15.94
2022-08-09T06:41:40.516Z,15.98
2022-08-09T06:42:52.462Z,16.04
2022-08-09T06:43:54.518Z,16.09
2022-08-09T06:44:58.752Z,16.14
2022-08-09T06:46:06.338Z,16.17
2022-08-09T06:47:13.581Z,16.22
2022-08-09T06:48:30.249Z,16.26
2022-08-09T06:50:11.673Z,16.32
2022-08-09T06:50:56.737Z,16.38
2022-08-09T06:51:59.815Z,16.43
2022-08-09T06:53:04.764Z,16.46
2022-08-09T06:54:12.492Z,16.51
2022-08-09T06:55:23.031Z,16.56
2022-08-09T06:56:31.085Z,16.61
2022-08-09T06:58:02.101Z,16.64
2022-08-09T07:00:49.542Z,16.74
2022-08-09T07:00:50.845Z,16.68
2022-08-09T07:01:57.866Z,16.81
2022-08-09T07:03:06.099Z,16.85
2022-08-09T07:04:08.386Z,16.91
2022-08-09T07:05:13.543Z,16.96
2022-08-09T07:06:15.528Z,17.00
2022-08-09T07:07:59.626Z,17.04
2022-08-09T07:08:42.146Z,17.10
2022-08-09T07:09:57.181Z,17.13
2022-08-09T07:11:17.665Z,17.19
2022-08-09T07:12:38.523Z,17.24
2022-08-09T07:13:45.228Z,17.29
2022-08-09T07:15:53.887Z,17.35
2022-08-09T07:16:42.563Z,17.41
2022-08-09T07:17:56.275Z,17.45
2022-08-09T07:19:05.887Z,17.51
2022-08-09T07:20:11.979Z,17.54
2022-08-09T07:21:14.019Z,17.59
2022-08-09T07:22:17.386Z,17.63
2022-08-09T07:23:20.212Z,17.66
2022-08-09T07:24:32.861Z,17.68
2022-08-09T07:25:44.410Z,17.74
2022-08-09T07:26:47.507Z,17.78
2022-08-09T07:27:56.661Z,17.83
2022-08-09T07:29:09.093Z,17.87
2022-08-09T07:30:15.955Z,17.91
2022-08-09T07:31:20.388Z,17.95
2022-08-09T07:32:32.334Z,17.98
2022-08-09T07:33:52.524Z,18.06
2022-08-09T07:34:58.775Z,18.09
2022-08-09T07:36:01.965Z,18.15
2022-08-09T07:37:04.066Z,18.21
2022-08-09T07:38:07.191Z,18.28
2022-08-09T07:39:12.753Z,18.32
2022-08-09T07:40:26.747Z,18.38
2022-08-09T07:41:33.180Z,18.44
2022-08-09T07:43:00.706Z,18.52
2022-08-09T07:44:03.500Z,18.56
2022-08-09T07:45:22.903Z,18.60
2022-08-09T07:46:30.499Z,18.68
2022-08-09T07:47:39.545Z,18.73
2022-08-09T07:48:59.556Z,18.78
2022-08-09T07:50:07.973Z,18.83
2022-08-09T07:52:03.245Z,18.87
2022-08-09T07:52:35.706Z,18.94
2022-08-09T07:54:05.354Z,18.97
2022-08-09T07:55:02.497Z,19.03
2022-08-09T07:56:26.754Z,19.09
2022-08-09T07:57:35.867Z,19.13
2022-08-09T07:58:39.391Z,19.18
2022-08-09T07:59:51.027Z,19.23
2022-08-09T08:01:15.999Z,19.26
2022-08-09T08:02:24.267Z,19.31
2022-08-09T08:03:29.745Z,19.35
2022-08-09T08:04:32.940Z,19.38
2022-08-09T08:05:54.161Z,19.41
2022-08-09T08:06:59.993Z,19.46
2022-08-09T08:08:43.837Z,19.50
2022-08-09T08:09:39.981Z,19.56
2022-08-09T08:11:15.182Z,19.61
2022-08-09T08:12:28.028Z,19.66
2022-08-09T08:13:39.971Z,19.72
2022-08-09T08:14:57.269Z,19.78
2022-08-09T08:15:59.359Z,19.82
2022-08-09T08:17:08.788Z,19.85
2022-08-09T08:18:12.231Z,19.90
2022-08-09T08:19:17.434Z,19.95
2022-08-09T08:20:29.548Z,19.98
2022-08-09T08:21:39.559Z,20.03
2022-08-09T08:22:41.919Z,20.09
2022-08-09T08:23:44.960Z,20.13
2022-08-09T08:24:59.402Z,20.18
2022-08-09T08:26:08.095Z,20.17
2022-08-09T08:27:17.266Z,20.27
2022-08-09T08:28:26.011Z,20.31
2022-08-09T08:29:39.681Z,20.36
2022-08-09T08:30:48.925Z,20.41
2022-08-09T08:32:03.755Z,20.45
2022-08-09T08:33:11.906Z,20.50
2022-08-09T08:34:25.800Z,20.56
2022-08-09T08:35:37.159Z,20.60
2022-08-09T08:36:51.883Z,20.66
2022-08-09T08:37:59.602Z,20.72
2022-08-09T08:39:05.458Z,20.76
2022-08-09T08:40:09.723Z,20.81
2022-08-09T08:41:15.984Z,20.86
2022-08-09T08:42:19.405Z,20.91
2022-08-09T08:43:36.162Z,20.96
2022-08-09T08:44:42.611Z,21.00
2022-08-09T08:45:59.594Z,21.06
2022-08-09T08:47:12.819Z,21.10
2022-08-09T08:48:19.312Z,21.12
2022-08-09T08:49:26.801Z,21.17
2022-08-09T08:50:42.146Z,21.18
2022-08-09T08:52:00.422Z,21.21
2022-08-09T08:53:11.897Z,21.24
2022-08-09T08:54:20.248Z,21.26
2022-08-09T08:55:24.584Z,21.26
2022-08-09T08:56:28.261Z,21.31
2022-08-09T08:57:34.917Z,21.34
2022-08-09T08:58:37.847Z,21.39
2022-08-09T08:59:49.644Z,21.42
2022-08-09T09:00:58.559Z,21.47
2022-08-09T09:02:05.053Z,21.51
2022-08-09T09:03:08.632Z,21.55
2022-08-09T09:04:26.982Z,21.57
2022-08-09T09:05:58.152Z,21.63
2022-08-09T09:06:58.989Z,21.68
2022-08-09T09:08:05.032Z,21.73
2022-08-09T09:09:58.508Z,21.82
2022-08-09T09:10:54.881Z,21.91
2022-08-09T09:11:58.747Z,21.96
2022-08-09T09:13:09.224Z,21.99
2022-08-09T09:14:16.678Z,22.02
2022-08-09T09:15:28.036Z,22.02
2022-08-09T09:16:34.659Z,22.05
2022-08-09T09:17:49.339Z,22.07
2022-08-09T09:19:10.745Z,22.05
2022-08-09T09:20:21.260Z,22.18
2022-08-09T09:21:26.398Z,22.24
2022-08-09T09:22:49.909Z,22.31
2022-08-09T09:23:58.108Z,22.42
2022-08-09T09:26:02.524Z,22.51
2022-08-09T09:26:25.925Z,22.62
2022-08-09T09:28:06.898Z,22.72
2022-08-09T09:29:03.336Z,22.84
2022-08-09T09:30:38.086Z,22.94
2022-08-09T09:32:05.971Z,23.04
2022-08-09T09:33:13.878Z,23.11
2022-08-09T09:34:19.129Z,23.18
2022-08-09T09:35:24.272Z,23.23
2022-08-09T09:36:39.810Z,23.28
2022-08-09T09:37:54.805Z,23.31
2022-08-09T09:39:02.389Z,23.36
2022-08-09T09:40:11.576Z,23.38
2022-08-09T09:41:32.860Z,23.39
2022-08-09T09:42:46.239Z,23.42
2022-08-09T09:44:12.248Z,23.41
2022-08-09T09:45:14.328Z,23.44
2022-08-09T09:46:50.463Z,23.46
2022-08-09T09:47:56.757Z,23.46
2022-08-09T09:49:06.043Z,23.48
2022-08-09T09:50:16.746Z,23.48
2022-08-09T09:51:37.962Z,23.44
2022-08-09T09:52:53.397Z,23.37
2022-08-09T09:54:17.087Z,23.29
2022-08-09T09:55:32.258Z,23.26
2022-08-09T09:56:37.096Z,23.23
2022-08-09T09:58:17.318Z,23.21
2022-08-09T09:59:35.191Z,23.21
2022-08-09T10:00:43.687Z,23.21
2022-08-09T10:02:00.156Z,23.22
2022-08-09T10:03:09.132Z,23.24
2022-08-09T10:04:23.049Z,23.05
2022-08-09T10:06:00.715Z,23.26
2022-08-09T10:06:56.040Z,23.31
2022-08-09T10:08:27.120Z,23.36
2022-08-09T10:09:27.568Z,23.42
2022-08-09T10:10:31.505Z,23.45
2022-08-09T10:11:53.840Z,23.47
2022-08-09T10:12:58.621Z,23.46
2022-08-09T10:14:02.491Z,23.43
2022-08-09T10:15:08.094Z,23.40
2022-08-09T10:16:57.015Z,23.33
2022-08-09T10:17:56.539Z,23.25
2022-08-09T10:19:03.494Z,23.20
2022-08-09T10:20:27.748Z,23.14
2022-08-09T10:21:36.972Z,23.16
2022-08-09T10:22:39.757Z,23.15
2022-08-09T10:23:44.834Z,23.17
2022-08-09T10:24:50.003Z,23.21
2022-08-09T10:26:04.406Z,23.24
2022-08-09T10:27:17.473Z,23.29
2022-08-09T10:28:28.685Z,23.34
2022-08-09T10:30:43.641Z,23.38
2022-08-09T10:32:38.560Z,23.44
2022-08-09T10:34:08.257Z,23.46
2022-08-09T10:35:10.177Z,23.48
2022-08-09T10:36:14.946Z,23.49
2022-08-09T10:37:19.035Z,23.50
2022-08-09T10:38:54.855Z,23.51
2022-08-09T10:39:49.513Z,23.51
2022-08-09T10:40:52.201Z,23.50
2022-08-09T10:41:55.486Z,23.49
2022-08-09T10:42:57.708Z,23.47
2022-08-09T10:44:01.877Z,23.45
2022-08-09T10:45:10.668Z,23.41
2022-08-09T10:46:57.269Z,23.41
2022-08-09T10:48:20.469Z,23.41
2022-08-09T10:49:51.456Z,23.45
2022-08-09T10:51:10.022Z,23.50
2022-08-09T10:52:23.238Z,23.56
2022-08-09T10:53:46.664Z,23.65
2022-08-09T10:54:57.204Z,23.72
2022-08-09T10:56:17.634Z,23.79
2022-08-09T10:57:37.614Z,23.84
2022-08-09T10:58:40.026Z,23.87
2022-08-09T10:59:57.787Z,23.89
2022-08-09T11:03:06.450Z,23.89
2022-08-09T11:03:15.649Z,23.87
2022-08-09T11:04:19.961Z,23.84
2022-08-09T11:05:34.168Z,23.79
2022-08-09T11:06:44.781Z,23.77
2022-08-09T11:07:58.545Z,23.77
2022-08-09T11:09:15.488Z,23.78
2022-08-09T11:10:54.772Z,23.84
2022-08-09T11:12:13.608Z,23.90
2022-08-09T11:13:49.507Z,23.97
2022-08-09T11:14:41.952Z,24.06
2022-08-09T11:16:04.422Z,24.13
2022-08-09T11:18:02.681Z,24.20
2022-08-09T11:19:10.695Z,24.27
2022-08-09T11:20:22.581Z,24.31
2022-08-09T11:22:04.812Z,24.35
2022-08-09T11:23:17.279Z,24.37
2022-08-09T11:24:26.348Z,24.40
2022-08-09T11:25:46.197Z,24.39
2022-08-09T11:26:52.183Z,24.45
2022-08-09T11:28:09.200Z,24.42
2022-08-09T11:30:05.266Z,24.42
2022-08-09T11:31:49.976Z,24.36
2022-08-09T11:32:58.145Z,24.27
2022-08-09T11:34:06.543Z,24.25
2022-08-09T11:35:16.589Z,24.21
2022-08-09T11:36:35.630Z,24.16
2022-08-09T11:37:43.131Z,24.09
2022-08-09T11:39:02.093Z,24.00
2022-08-09T11:40:06.823Z,23.93
2022-08-09T11:41:38.374Z,23.86
2022-08-09T11:42:47.084Z,23.79
2022-08-09T11:43:52.774Z,23.81
2022-08-09T11:44:55.366Z,23.81
2022-08-09T11:46:01.927Z,23.89
2022-08-09T11:47:05.206Z,24.00
2022-08-09T11:48:25.208Z,24.11
2022-08-09T11:50:53.409Z,24.24
2022-08-09T11:53:04.226Z,24.37
2022-08-09T11:53:59.695Z,24.52
2022-08-09T11:54:44.311Z,24.68
2022-08-09T11:55:53.941Z,24.80
2022-08-09T11:57:47.593Z,24.97
2022-08-09T11:59:03.363Z,25.14
2022-08-09T12:00:12.019Z,25.25
2022-08-09T12:02:16.289Z,25.36
2022-08-09T12:02:55.297Z,25.45
2022-08-09T12:04:01.476Z,25.52
2022-08-09T12:05:03.942Z,25.60
2022-08-09T12:06:16.705Z,25.70
2022-08-09T12:07:18.875Z,25.79
2022-08-09T12:08:24.275Z,25.87
2022-08-09T12:09:33.574Z,25.95
2022-08-09T12:10:39.396Z,26.03
2022-08-09T12:12:02.183Z,26.08
2022-08-09T12:14:07.874Z,26.16
2022-08-09T12:14:36.840Z,26.21
2022-08-09T12:15:48.857Z,26.25
2022-08-09T12:16:53.636Z,26.28
2022-08-09T12:17:58.569Z,26.34
2022-08-09T12:19:03.056Z,26.39
2022-08-09T12:20:19.812Z,26.42
2022-08-09T12:21:38.246Z,26.43
2022-08-09T12:22:43.735Z,26.48
2022-08-09T12:24:06.500Z,26.52
2022-08-09T12:25:14.931Z,26.54
2022-08-09T12:26:25.474Z,26.57
2022-08-09T12:28:59.288Z,26.59
2022-08-09T12:29:10.176Z,26.62
2022-08-09T12:30:36.561Z,26.65
2022-08-09T12:32:02.118Z,26.68
2022-08-09T12:33:03.410Z,26.70
2022-08-09T12:34:05.527Z,26.72
2022-08-09T12:35:12.415Z,26.72
2022-08-09T12:36:31.199Z,26.74
2022-08-09T12:37:49.822Z,26.76
2022-08-09T12:38:55.949Z,26.79
2022-08-09T12:40:02.582Z,26.85
2022-08-09T12:41:07.279Z,26.89
2022-08-09T12:42:16.633Z,26.93
2022-08-09T12:43:20.540Z,26.79
2022-08-09T12:44:26.497Z,27.03
2022-08-09T12:45:41.285Z,27.10
2022-08-09T12:46:49.940Z,27.14
2022-08-09T12:47:52.767Z,27.18
2022-08-09T12:48:57.111Z,27.22
2022-08-09T12:50:17.438Z,27.21
2022-08-09T12:51:30.640Z,27.09
2022-08-09T12:53:09.400Z,27.01
2022-08-09T12:54:14.750Z,26.87
2022-08-09T12:56:12.894Z,26.73
2022-08-09T12:56:54.141Z,26.55
2022-08-09T12:57:59.107Z,26.43
2022-08-09T12:59:11.801Z,26.25
2022-08-09T13:00:18.875Z,26.17
2022-08-09T13:01:28.956Z,26.04
2022-08-09T13:02:49.381Z,25.89
2022-08-09T13:04:01.870Z,25.76
2022-08-09T13:05:07.287Z,25.65
2022-08-09T13:06:14.555Z,25.56
2022-08-09T13:07:28.627Z,25.47
2022-08-09T13:08:59.399Z,25.37
2022-08-09T13:10:07.256Z,25.32
2022-08-09T13:11:22.660Z,25.31
2022-08-09T13:12:28.043Z,25.37
2022-08-09T13:14:37.222Z,25.49
2022-08-09T13:15:07.198Z,25.74
2022-08-09T13:16:15.774Z,25.92
2022-08-09T13:18:03.780Z,26.01
2022-08-09T13:18:46.985Z,26.09
2022-08-09T13:20:09.378Z,26.14
2022-08-09T13:22:36.208Z,26.16
2022-08-09T13:23:05.780Z,26.19
2022-08-09T13:24:44.333Z,26.18
2022-08-09T13:25:54.628Z,26.18
2022-08-09T13:26:59.885Z,26.18
2022-08-09T13:28:11.455Z,26.14
2022-08-09T13:29:28.581Z,26.12
2022-08-09T13:32:15.121Z,26.11
2022-08-09T13:32:45.818Z,26.12
2022-08-09T13:33:52.677Z,26.22
2022-08-09T13:34:56.934Z,26.29
2022-08-09T13:36:24.162Z,26.46
2022-08-09T13:37:50.589Z,26.73
2022-08-09T13:38:55.968Z,27.02
2022-08-09T13:41:54.828Z,27.29
2022-08-09T13:41:59.441Z,27.57
2022-08-09T13:42:50.253Z,27.85
2022-08-09T13:43:52.401Z,28.06
2022-08-09T13:44:55.433Z,28.27
2022-08-09T13:46:42.738Z,28.49
2022-08-09T13:47:33.097Z,28.77
2022-08-09T13:48:43.735Z,29.07
2022-08-09T13:49:56.312Z,29.28
2022-08-09T13:51:01.384Z,29.49
2022-08-09T13:52:04.247Z,29.67
2022-08-09T13:53:12.431Z,29.82
2022-08-09T13:54:14.760Z,29.94
2022-08-09T13:55:21.041Z,30.01
2022-08-09T13:56:23.259Z,30.13
2022-08-09T13:57:37.297Z,30.23
2022-08-09T13:58:43.308Z,30.31
2022-08-09T13:59:45.551Z,30.38
2022-08-09T14:00:52.695Z,30.43
2022-08-09T14:02:01.692Z,30.56
2022-08-09T14:04:00.960Z,30.71
2022-08-09T14:04:28.587Z,30.87
2022-08-09T14:05:57.220Z,31.02
2022-08-09T14:06:56.275Z,31.22
2022-08-09T14:08:01.506Z,31.34
2022-08-09T14:09:07.790Z,31.45
2022-08-09T14:10:17.044Z,31.52
2022-08-09T14:11:21.088Z,31.61
2022-08-09T14:12:29.848Z,31.71
2022-08-09T14:14:22.485Z,31.78
2022-08-09T14:14:57.330Z,31.80
2022-08-09T14:16:09.491Z,31.78
2022-08-09T14:17:14.052Z,31.71
2022-08-09T14:18:32.207Z,31.62
2022-08-09T14:19:35.615Z,31.52
2022-08-09T14:20:37.641Z,31.41
2022-08-09T14:21:42.044Z,31.32
2022-08-09T14:22:45.140Z,31.28
2022-08-09T14:23:54.189Z,31.29
2022-08-09T14:24:59.581Z,31.34
2022-08-09T14:26:05.715Z,31.36
2022-08-09T14:27:19.973Z,31.40
2022-08-09T14:28:22.917Z,31.46
2022-08-09T14:30:34.077Z,31.49
2022-08-09T14:30:54.679Z,31.55
2022-08-09T14:31:58.339Z,31.60
2022-08-09T14:33:11.110Z,31.66
2022-08-09T14:34:17.478Z,31.65
2022-08-09T14:35:52.258Z,31.62
2022-08-09T14:36:54.192Z,31.67
2022-08-09T14:38:02.496Z,31.73
2022-08-09T14:39:08.893Z,31.74
2022-08-09T14:40:13.157Z,31.66
2022-08-09T14:41:39.729Z,31.46
2022-08-09T14:42:41.347Z,31.08
2022-08-09T14:43:47.835Z,30.76
2022-08-09T14:44:59.801Z,30.33
2022-08-09T14:47:01.154Z,29.97
2022-08-09T14:47:45.456Z,29.55
2022-08-09T14:48:50.101Z,29.14
2022-08-09T14:50:02.325Z,28.83
2022-08-09T14:51:05.340Z,28.49
2022-08-09T14:52:08.629Z,28.21
2022-08-09T14:53:13.780Z,27.96
2022-08-09T14:54:16.877Z,27.70
2022-08-09T14:55:24.578Z,27.45
2022-08-09T14:56:27.996Z,27.25
2022-08-09T14:57:32.162Z,27.05
2022-08-09T14:58:46.441Z,26.85
2022-08-09T14:59:49.717Z,26.71
2022-08-09T15:00:57.719Z,26.55
2022-08-09T15:02:01.168Z,26.45
2022-08-09T15:03:08.080Z,26.35
2022-08-09T15:04:11.162Z,26.24
2022-08-09T15:05:16.183Z,26.13
2022-08-09T15:06:20.772Z,26.03
2022-08-09T15:07:22.876Z,25.97
2022-08-09T15:08:26.362Z,25.96
2022-08-09T15:10:07.615Z,26.14
2022-08-09T15:11:01.347Z,26.45
2022-08-09T15:12:09.576Z,26.80
2022-08-09T15:13:13.672Z,27.14
2022-08-09T15:14:19.238Z,27.48
2022-08-09T15:15:21.737Z,27.83
2022-08-09T15:16:30.509Z,28.16
2022-08-09T15:17:33.412Z,28.48
2022-08-09T15:18:48.274Z,28.73
2022-08-09T15:19:59.256Z,29.02
2022-08-09T15:21:55.327Z,29.29
2022-08-09T15:22:29.892Z,29.58